createdAt,value
2022-10-11T00:01:39.970Z,34.33
2022-10-11T00:04:06.659Z,33.90
2022-10-11T00:06:33.276Z,35.65
2022-10-11T00:08:59.787Z,32.28
2022-10-11T00:11:26.336Z,40.08
2022-10-11T00:13:52.876Z,41.95
2022-10-11T00:16:19.400Z,34.08
2022-10-11T00:18:45.993Z,28.73
2022-10-11T00:21:14.627Z,35.65
2022-10-11T00:23:42.035Z,41.05
2022-10-11T00:26:10.710Z,33.42
2022-10-11T00:28:37.897Z,32.95
2022-10-11T00:31:13.467Z,38.55
2022-10-11T00:33:40.144Z,28.48
2022-10-11T00:36:09.136Z,31.38
2022-10-11T00:38:36.255Z,36.80
2022-10-11T00:41:02.845Z,30.90
2022-10-11T00:43:31.046Z,36.53
2022-10-11T00:45:57.646Z,30.92
2022-10-11T00:48:44.679Z,32.03
2022-10-11T00:51:26.148Z,36.58
2022-10-11T00:53:53.767Z,32.47
2022-10-11T00:56:41.400Z,32.60
2022-10-11T00:59:14.650Z,31.90
2022-10-11T01:01:41.310Z,32.00
2022-10-11T01:04:07.943Z,36.72
2022-10-11T01:06:35.304Z,29.25
2022-10-11T01:09:02.330Z,30.02
2022-10-11T01:11:30.936Z,34.88
2022-10-11T01:14:03.282Z,33.22
2022-10-11T01:16:47.608Z,32.00
2022-10-11T01:19:26.209Z,35.20
2022-10-11T01:22:13.807Z,33.45
2022-10-11T01:25:14.405Z,39.10
2022-10-11T01:28:16.568Z,31.20
2022-10-11T01:30:43.926Z,34.30
2022-10-11T01:33:21.647Z,35.33
2022-10-11T01:36:22.117Z,34.53
2022-10-11T01:38:58.688Z,29.00
2022-10-11T01:41:31.043Z,28.80
2022-10-11T01:44:01.289Z,31.08
2022-10-11T01:46:32.184Z,30.75
2022-10-11T01:49:01.249Z,24.73
2022-10-11T01:51:32.997Z,22.95
2022-10-11T01:54:20.745Z,19.80
2022-10-11T01:56:52.914Z,24.92
2022-10-11T01:59:35.287Z,21.27
2022-10-11T02:02:35.893Z,12.88
2022-10-11T02:05:33.342Z,14.93
2022-10-11T02:08:08.788Z,20.23
2022-10-11T02:10:38.285Z,20.65
2022-10-11T02:13:27.009Z,17.75
2022-10-11T02:15:56.146Z,16.67
2022-10-11T02:18:26.708Z,15.45
2022-10-11T02:20:54.923Z,18.17
2022-10-11T02:23:26.832Z,16.35
2022-10-11T02:25:55.117Z,17.67
2022-10-11T02:28:28.265Z,15.50
2022-10-11T02:30:56.758Z,21.08
2022-10-11T02:33:36.014Z,17.58
2022-10-11T02:36:08.645Z,16.38
2022-10-11T02:38:47.879Z,18.25
2022-10-11T02:41:31.098Z,16.98
2022-10-11T02:44:06.531Z,17.25
2022-10-11T02:46:34.181Z,19.35
2022-10-11T02:49:01.167Z,15.48
2022-10-11T02:51:30.902Z,19.25
2022-10-11T02:53:57.877Z,17.48
2022-10-11T02:56:24.480Z,20.27
2022-10-11T02:58:51.056Z,19.45
2022-10-11T03:01:17.643Z,17.33
2022-10-11T03:03:44.763Z,21.42
2022-10-11T03:06:11.427Z,22.27
2022-10-11T03:08:37.986Z,25.13
2022-10-11T03:11:04.676Z,23.95
2022-10-11T03:13:31.179Z,20.15
2022-10-11T03:16:03.243Z,20.95
2022-10-11T03:18:31.427Z,20.65
2022-10-11T03:20:57.954Z,26.38
2022-10-11T03:23:24.503Z,24.55
2022-10-11T03:25:52.181Z,27.35
2022-10-11T03:28:19.341Z,26.48
2022-10-11T03:30:49.819Z,21.17
2022-10-11T03:33:17.260Z,29.83
2022-10-11T03:35:45.676Z,24.85
2022-10-11T03:38:18.912Z,20.67
2022-10-11T03:40:45.613Z,19.85
2022-10-11T03:43:12.363Z,19.75
2022-10-11T03:45:39.334Z,27.08
2022-10-11T03:48:06.166Z,22.27
2022-10-11T03:50:32.684Z,24.08
2022-10-11T03:52:59.410Z,23.85
2022-10-11T03:55:26.216Z,20.88
2022-10-11T03:57:52.822Z,27.05
2022-10-11T04:00:19.842Z,21.25
2022-10-11T04:02:46.724Z,21.23
2022-10-11T04:05:13.423Z,25.15
2022-10-11T04:07:40.242Z,22.00
2022-10-11T04:10:07.561Z,22.55
2022-10-11T04:12:34.824Z,24.70
2022-10-11T04:15:01.361Z,20.20
2022-10-11T04:17:27.903Z,21.42
2022-10-11T04:19:54.430Z,23.33
2022-10-11T04:22:21.100Z,26.25
2022-10-11T04:24:47.652Z,17.23
2022-10-11T04:27:14.184Z,19.92
2022-10-11T04:29:40.732Z,22.40
2022-10-11T04:32:07.344Z,22.35
2022-10-11T04:34:34.066Z,19.30
2022-10-11T04:37:00.578Z,16.73
2022-10-11T04:39:27.156Z,18.73
2022-10-11T04:41:53.754Z,18.55
2022-10-11T04:44:20.298Z,18.88
2022-10-11T04:46:46.835Z,22.52
2022-10-11T04:49:13.379Z,15.93
2022-10-11T04:51:40.090Z,18.95
2022-10-11T04:54:06.656Z,18.75
2022-10-11T04:56:33.336Z,12.65
2022-10-11T04:58:59.999Z,18.83
2022-10-11T05:01:26.625Z,22.70
2022-10-11T05:03:53.149Z,19.00
2022-10-11T05:06:19.971Z,20.55
2022-10-11T05:08:46.668Z,13.48
2022-10-11T05:11:16.125Z,16.55
2022-10-11T05:13:43.998Z,16.73
2022-10-11T05:16:12.017Z,16.25
2022-10-11T05:18:39.681Z,16.58
2022-10-11T05:21:08.070Z,18.45
2022-10-11T05:23:35.875Z,14.23
2022-10-11T05:26:03.364Z,17.75
2022-10-11T05:28:30.287Z,17.45
2022-10-11T05:30:56.810Z,12.30
2022-10-11T05:33:23.626Z,15.38
2022-10-11T05:35:50.355Z,19.17
2022-10-11T05:38:16.936Z,16.05
2022-10-11T05:40:43.677Z,18.95
2022-10-11T05:43:10.334Z,17.58
2022-10-11T05:45:42.111Z,16.08
2022-10-11T05:48:09.460Z,18.40
2022-10-11T05:50:36.683Z,16.67
2022-10-11T05:53:04.299Z,15.15
2022-10-11T05:55:35.064Z,23.33
2022-10-11T05:58:01.664Z,16.15
2022-10-11T06:00:28.239Z,15.40
2022-10-11T06:02:54.807Z,16.63
2022-10-11T06:05:21.541Z,16.23
2022-10-11T06:07:48.187Z,9.88
2022-10-11T06:10:14.735Z,14.13
2022-10-11T06:12:41.271Z,14.60
2022-10-11T06:15:08.834Z,16.33
2022-10-11T06:17:35.405Z,16.83
2022-10-11T06:20:01.998Z,16.88
2022-10-11T06:22:28.552Z,14.27
2022-10-11T06:24:55.127Z,22.67
2022-10-11T06:27:21.702Z,16.75
2022-10-11T06:29:48.332Z,17.45
2022-10-11T06:32:15.012Z,13.85
2022-10-11T06:34:41.618Z,22.00
2022-10-11T06:37:08.405Z,21.00
2022-10-11T06:39:35.107Z,18.08
2022-10-11T06:42:01.906Z,17.92
2022-10-11T06:44:28.576Z,20.50
2022-10-11T06:46:55.111Z,18.00
2022-10-11T06:49:23.503Z,18.75
2022-10-11T06:51:50.867Z,22.92
2022-10-11T06:54:17.438Z,27.45
2022-10-11T06:56:45.661Z,17.45
2022-10-11T06:59:13.495Z,16.88
2022-10-11T07:01:40.266Z,23.20
2022-10-11T07:04:07.208Z,13.70
2022-10-11T07:06:36.999Z,12.35
2022-10-11T07:09:04.398Z,23.38
2022-10-11T07:11:31.086Z,17.13
2022-10-11T07:14:00.347Z,22.50
2022-10-11T07:16:28.518Z,21.30
2022-10-11T07:19:00.462Z,23.52
2022-10-11T07:21:28.568Z,19.65
2022-10-11T07:23:55.168Z,18.83
2022-10-11T07:26:21.723Z,14.18
2022-10-11T07:28:48.437Z,18.10
2022-10-11T07:31:21.812Z,11.38
2022-10-11T07:33:48.415Z,20.15
2022-10-11T07:36:15.206Z,13.73
2022-10-11T07:38:43.618Z,22.92
2022-10-11T07:41:10.570Z,15.70
2022-10-11T07:43:38.152Z,16.83
2022-10-11T07:46:06.015Z,17.50
2022-10-11T07:48:34.556Z,19.88
2022-10-11T07:51:21.877Z,17.65
2022-10-11T07:53:53.537Z,17.67
2022-10-11T07:56:22.495Z,16.15
2022-10-11T07:58:57.245Z,16.83
2022-10-11T08:01:24.823Z,18.08
2022-10-11T08:03:51.967Z,12.32
2022-10-11T08:06:22.294Z,15.80
2022-10-11T08:08:49.234Z,13.68
2022-10-11T08:11:24.826Z,26.70
2022-10-11T08:13:51.990Z,19.42
2022-10-11T08:16:19.757Z,21.50
2022-10-11T08:18:46.374Z,33.55
2022-10-11T08:21:15.610Z,16.20
2022-10-11T08:23:42.446Z,13.35
2022-10-11T08:26:09.976Z,12.35
2022-10-11T08:28:37.148Z,19.75
2022-10-11T08:31:04.294Z,13.52
2022-10-11T08:33:31.211Z,14.45
2022-10-11T08:35:58.445Z,20.25
2022-10-11T08:38:25.044Z,14.15
2022-10-11T08:40:57.184Z,13.40
2022-10-11T08:45:59.197Z,17.08
2022-10-11T08:48:38.448Z,14.80
2022-10-11T08:51:19.434Z,17.55
2022-10-11T08:53:53.837Z,16.50
2022-10-11T08:56:21.619Z,15.38
2022-10-11T08:59:03.149Z,9.23
2022-10-11T09:01:31.731Z,17.40
2022-10-11T09:04:00.089Z,15.30
2022-10-11T09:07:07.377Z,13.02
2022-10-11T09:09:42.999Z,17.50
2022-10-11T09:12:14.441Z,18.38
2022-10-11T09:14:47.116Z,16.00
2022-10-11T09:17:20.478Z,16.35
2022-10-11T09:20:02.288Z,12.90
2022-10-11T09:22:57.006Z,11.85
2022-10-11T09:25:44.447Z,17.35
2022-10-11T09:28:42.126Z,15.93
2022-10-11T09:31:11.053Z,17.33
2022-10-11T09:33:38.938Z,15.75
2022-10-11T09:36:20.253Z,12.57
2022-10-11T09:38:53.725Z,16.07
2022-10-11T09:41:42.096Z,18.80
2022-10-11T09:44:19.940Z,12.02
2022-10-11T09:46:48.892Z,17.33
2022-10-11T09:49:18.503Z,20.20
2022-10-11T09:51:51.222Z,17.25
2022-10-11T09:54:18.820Z,12.23
2022-10-11T09:56:46.130Z,15.98
2022-10-11T09:59:30.804Z,21.33
2022-10-11T10:02:12.690Z,11.90
2022-10-11T10:04:57.384Z,12.45
2022-10-11T10:07:24.413Z,16.25
2022-10-11T10:09:52.834Z,12.25
2022-10-11T10:12:30.428Z,13.13
2022-10-11T10:15:19.499Z,14.30
2022-10-11T10:17:53.353Z,12.23
2022-10-11T10:20:27.468Z,17.23
2022-10-11T10:22:54.236Z,10.05
2022-10-11T10:25:25.673Z,17.23
2022-10-11T10:28:00.907Z,12.73
2022-10-11T10:30:31.817Z,14.52
2022-10-11T10:33:06.203Z,15.85
2022-10-11T10:35:45.491Z,14.15
2022-10-11T10:38:17.162Z,14.35
2022-10-11T10:40:54.087Z,15.48
2022-10-11T10:43:24.065Z,13.10
2022-10-11T10:46:09.881Z,14.30
2022-10-11T10:51:52.974Z,18.38
2022-10-11T10:54:40.878Z,14.68
2022-10-11T10:57:20.311Z,12.00
2022-10-11T11:00:02.828Z,15.63
2022-10-11T11:02:41.913Z,13.45
2022-10-11T11:05:27.459Z,17.55
2022-10-11T11:08:12.975Z,14.27
2022-10-11T11:10:51.219Z,13.43
2022-10-11T11:13:36.669Z,15.07
2022-10-11T11:16:30.963Z,15.98
2022-10-11T11:19:00.473Z,15.32
2022-10-11T11:21:41.762Z,11.02
2022-10-11T11:24:43.579Z,13.17
2022-10-11T11:27:43.355Z,10.53
2022-10-11T11:30:15.407Z,13.05
2022-10-11T11:33:00.362Z,13.02
2022-10-11T11:35:41.371Z,13.05
2022-10-11T11:38:33.080Z,12.27
2022-10-11T11:41:02.711Z,13.07
2022-10-11T11:43:36.651Z,11.55
2022-10-11T11:46:11.831Z,9.77
2022-10-11T11:48:39.222Z,10.43
2022-10-11T11:51:11.517Z,16.40
2022-10-11T11:53:52.936Z,16.58
2022-10-11T11:56:26.774Z,9.27
2022-10-11T11:59:06.490Z,12.52
2022-10-11T12:01:36.143Z,12.45
2022-10-11T12:04:14.587Z,14.98
2022-10-11T12:07:04.103Z,10.80
2022-10-11T12:09:29.503Z,17.00
2022-10-11T12:11:59.722Z,15.20
2022-10-11T12:14:32.027Z,7.32
2022-10-11T12:17:12.652Z,13.77
2022-10-11T12:19:42.231Z,13.02
2022-10-11T12:22:36.691Z,13.90
2022-10-11T12:25:09.305Z,11.05
2022-10-11T12:27:38.438Z,10.82
2022-10-11T12:30:42.803Z,12.82
2022-10-11T12:33:32.850Z,14.52
2022-10-11T12:36:20.898Z,15.57
2022-10-11T12:39:07.420Z,13.95
2022-10-11T12:41:50.039Z,13.57
2022-10-11T12:44:22.997Z,10.88
2022-10-11T12:46:55.710Z,16.48
2022-10-11T12:49:40.653Z,18.65
2022-10-11T12:52:16.185Z,18.00
2022-10-11T12:55:03.982Z,9.77
2022-10-11T12:57:33.543Z,14.30
2022-10-11T13:00:29.215Z,12.82
2022-10-11T13:02:58.045Z,12.15
2022-10-11T13:05:47.706Z,22.73
2022-10-11T13:08:30.426Z,18.42
2022-10-11T13:11:01.307Z,19.48
2022-10-11T13:13:57.960Z,12.88
2022-10-11T13:16:41.913Z,14.93
2022-10-11T13:19:13.527Z,10.73
2022-10-11T13:21:40.735Z,9.68
2022-10-11T13:24:14.900Z,11.50
2022-10-11T13:26:43.069Z,9.07
2022-10-11T13:29:54.441Z,13.05
2022-10-11T13:32:26.440Z,14.82
2022-10-11T13:37:30.152Z,13.82
2022-10-11T13:39:57.675Z,12.07
2022-10-11T13:42:30.899Z,8.88
2022-10-11T13:44:58.343Z,11.07
2022-10-11T13:47:28.208Z,11.63
2022-10-11T13:50:11.265Z,11.95
2022-10-11T13:52:54.229Z,8.15
2022-10-11T13:55:44.579Z,9.20
2022-10-11T13:58:20.669Z,11.02
2022-10-11T14:00:56.652Z,11.38
2022-10-11T14:03:26.056Z,16.85
2022-10-11T14:05:56.307Z,8.77
2022-10-11T14:08:42.594Z,15.15
2022-10-11T14:11:12.268Z,9.73
2022-10-11T14:13:49.955Z,13.43
2022-10-11T14:16:16.417Z,10.75
2022-10-11T14:18:48.993Z,9.93
2022-10-11T14:21:24.032Z,18.80
2022-10-11T14:23:55.468Z,10.20
2022-10-11T14:26:23.804Z,11.55
2022-10-11T14:28:59.048Z,11.18
2022-10-11T14:31:26.994Z,7.40
2022-10-11T14:33:55.030Z,12.88
2022-10-11T14:36:23.019Z,9.13
2022-10-11T14:38:50.722Z,8.30
2022-10-11T14:41:17.632Z,9.85
2022-10-11T14:43:44.305Z,10.23
2022-10-11T14:46:23.406Z,12.45
2022-10-11T14:48:55.650Z,15.23
2022-10-11T14:51:28.023Z,10.07
2022-10-11T14:53:54.809Z,12.88
2022-10-11T14:56:21.907Z,11.90
2022-10-11T14:58:49.113Z,10.20
2022-10-11T15:01:16.936Z,9.15
2022-10-11T15:03:43.626Z,11.75
2022-10-11T15:06:20.674Z,13.45
2022-10-11T15:08:47.867Z,10.27
2022-10-11T15:11:17.000Z,9.73
2022-10-11T15:13:43.830Z,9.88
2022-10-11T15:16:12.721Z,13.50
2022-10-11T15:18:40.004Z,9.55
2022-10-11T15:21:06.979Z,12.00
2022-10-11T15:23:33.687Z,9.88
2022-10-11T15:26:00.450Z,10.88
2022-10-11T15:28:30.669Z,15.50
2022-10-11T15:30:58.234Z,7.60
2022-10-11T15:33:25.302Z,9.10
2022-10-11T15:35:52.202Z,10.00
2022-10-11T15:38:22.211Z,11.70
2022-10-11T15:40:49.790Z,10.35
2022-10-11T15:43:20.772Z,13.40
2022-10-11T15:45:50.383Z,7.68
2022-10-11T15:48:21.271Z,7.60
2022-10-11T15:50:49.707Z,9.10
2022-10-11T15:53:26.226Z,8.55
2022-10-11T15:55:54.152Z,10.60
2022-10-11T15:58:33.649Z,9.88
2022-10-11T16:01:06.099Z,11.23
2022-10-11T16:03:33.729Z,10.73
2022-10-11T16:06:05.170Z,8.90
2022-10-11T16:08:32.825Z,12.63
2022-10-11T16:11:00.068Z,12.75
2022-10-11T16:13:26.677Z,9.63
2022-10-11T16:15:53.290Z,13.52
2022-10-11T16:18:21.153Z,17.38
2022-10-11T16:20:51.049Z,12.10
2022-10-11T16:23:18.631Z,10.27
2022-10-11T16:25:45.291Z,15.55
2022-10-11T16:28:12.003Z,9.90
2022-10-11T16:30:43.055Z,10.38
2022-10-11T16:33:09.935Z,9.05
2022-10-11T16:35:36.958Z,15.20
2022-10-11T16:38:03.512Z,8.95
2022-10-11T16:40:30.183Z,11.65
2022-10-11T16:42:56.862Z,14.38
2022-10-11T16:45:23.540Z,15.48
2022-10-11T16:47:50.407Z,14.00
2022-10-11T16:50:16.957Z,11.48
2022-10-11T16:52:43.553Z,11.35
2022-10-11T16:55:10.477Z,11.48
2022-10-11T16:57:37.847Z,9.38
2022-10-11T17:00:07.934Z,12.70
2022-10-11T17:02:35.077Z,8.77
2022-10-11T17:07:28.655Z,11.15
2022-10-11T17:09:55.315Z,13.05
2022-10-11T17:12:24.520Z,8.95
2022-10-11T17:14:51.501Z,8.98
2022-10-11T17:17:18.767Z,11.13
2022-10-11T17:19:45.738Z,21.17
2022-10-11T17:22:14.922Z,10.77
2022-10-11T17:24:41.847Z,12.18
2022-10-11T17:27:09.245Z,11.75
2022-10-11T17:29:36.337Z,16.25
2022-10-11T17:32:03.252Z,11.27
2022-10-11T17:34:29.838Z,14.50
2022-10-11T17:36:56.433Z,10.23
2022-10-11T17:39:23.735Z,16.52
2022-10-11T17:41:50.901Z,13.23
2022-10-11T17:44:18.609Z,15.73
2022-10-11T17:46:45.787Z,19.00
2022-10-11T17:49:12.887Z,15.10
2022-10-11T17:51:40.207Z,12.35
2022-10-11T17:54:12.285Z,19.27
2022-10-11T17:56:42.627Z,13.52
2022-10-11T17:59:15.934Z,13.05
2022-10-11T18:01:43.408Z,13.23
2022-10-11T18:04:16.709Z,10.10
2022-10-11T18:06:45.942Z,15.02
2022-10-11T18:09:14.559Z,11.50
2022-10-11T18:11:41.263Z,21.10
2022-10-11T18:14:07.867Z,11.98
2022-10-11T18:16:36.297Z,18.88
2022-10-11T18:19:05.782Z,9.93
2022-10-11T18:21:34.653Z,10.32
2022-10-11T18:24:04.079Z,13.35
2022-10-11T18:26:31.228Z,11.00
2022-10-11T18:28:58.709Z,11.27
2022-10-11T18:31:27.708Z,11.88
2022-10-11T18:33:55.124Z,11.52
2022-10-11T18:36:24.927Z,8.75
2022-10-11T18:38:58.350Z,11.20
2022-10-11T18:41:30.688Z,12.85
2022-10-11T18:44:03.871Z,18.42
2022-10-11T18:46:30.805Z,8.63
2022-10-11T18:48:58.371Z,15.40
2022-10-11T18:51:28.372Z,9.88
2022-10-11T18:53:55.588Z,14.27
2022-10-11T18:56:24.669Z,12.88
2022-10-11T18:58:53.496Z,14.52
2022-10-11T19:01:24.238Z,15.18
2022-10-11T19:03:54.381Z,8.35
2022-10-11T19:06:23.632Z,16.23
2022-10-11T19:09:04.804Z,14.25
2022-10-11T19:11:31.903Z,11.32
2022-10-11T19:14:11.190Z,15.70
2022-10-11T19:16:51.249Z,17.08
2022-10-11T19:19:20.197Z,15.07
2022-10-11T19:21:48.714Z,13.00
2022-10-11T19:24:20.408Z,11.48
2022-10-11T19:26:47.906Z,11.43
2022-10-11T19:29:20.336Z,9.27
2022-10-11T19:31:49.950Z,10.38
2022-10-11T19:34:16.806Z,14.27
2022-10-11T19:36:43.756Z,11.65
2022-10-11T19:39:14.779Z,9.00
2022-10-11T19:41:42.613Z,11.93
2022-10-11T19:44:09.757Z,10.77
2022-10-11T19:46:53.019Z,11.88
2022-10-11T19:49:24.031Z,11.07
2022-10-11T19:51:51.015Z,14.68
2022-10-11T19:54:17.972Z,12.65
2022-10-11T19:56:44.864Z,11.73
2022-10-11T19:59:12.698Z,19.60
2022-10-11T20:01:40.173Z,10.73
2022-10-11T20:04:22.626Z,16.92
2022-10-11T20:06:54.299Z,9.50
2022-10-11T20:09:29.973Z,10.80
2022-10-11T20:11:57.412Z,16.75
2022-10-11T20:14:24.380Z,14.90
2022-10-11T20:16:51.306Z,10.18
2022-10-11T20:19:18.081Z,14.93
2022-10-11T20:21:45.133Z,15.32
2022-10-11T20:24:12.552Z,14.00
2022-10-11T20:26:39.695Z,13.35
2022-10-11T20:29:06.850Z,12.05
2022-10-11T20:31:34.975Z,18.35
2022-10-11T20:34:04.281Z,10.60
2022-10-11T20:36:31.827Z,13.48
2022-10-11T20:38:59.350Z,18.40
2022-10-11T20:41:29.105Z,18.55
2022-10-11T20:43:56.989Z,16.42
2022-10-11T20:46:26.806Z,13.68
2022-10-11T20:49:01.202Z,19.00
2022-10-11T20:51:29.106Z,22.77
2022-10-11T20:53:56.439Z,12.85
2022-10-11T20:56:23.329Z,19.63
2022-10-11T20:58:55.134Z,18.60
2022-10-11T21:01:24.380Z,17.88
2022-10-11T21:03:50.914Z,19.20
2022-10-11T21:06:17.678Z,21.67
2022-10-11T21:08:44.601Z,20.27
2022-10-11T21:11:11.824Z,19.88
2022-10-11T21:13:38.413Z,26.52
2022-10-11T21:16:15.941Z,22.08
2022-10-11T21:18:42.705Z,20.45
2022-10-11T21:21:11.463Z,15.43
2022-10-11T21:23:38.531Z,20.88
2022-10-11T21:26:07.624Z,19.60
2022-10-11T21:28:34.601Z,26.15
2022-10-11T21:31:04.847Z,16.40
2022-10-11T21:33:31.743Z,20.77
2022-10-11T21:35:58.482Z,17.77
2022-10-11T21:38:25.177Z,15.63
2022-10-11T21:40:51.879Z,20.45
2022-10-11T21:43:18.392Z,11.95
2022-10-11T21:45:45.881Z,20.58
2022-10-11T21:48:12.406Z,18.33
2022-10-11T21:50:38.948Z,12.23
2022-10-11T21:53:05.596Z,14.73
2022-10-11T21:55:32.154Z,17.17
2022-10-11T21:57:58.774Z,13.85
2022-10-11T22:00:25.420Z,11.55
2022-10-11T22:02:52.247Z,14.43
2022-10-11T22:05:18.837Z,13.15
2022-10-11T22:07:45.630Z,11.65
2022-10-11T22:10:12.143Z,14.30
2022-10-11T22:12:38.784Z,12.57
2022-10-11T22:15:05.972Z,10.60
2022-10-11T22:17:32.503Z,14.55
2022-10-11T22:19:59.046Z,11.88
2022-10-11T22:22:25.652Z,15.30
2022-10-11T22:24:52.182Z,12.32
2022-10-11T22:27:18.807Z,13.63
2022-10-11T22:29:45.366Z,16.15
2022-10-11T22:32:11.891Z,10.65
2022-10-11T22:34:38.409Z,14.25
2022-10-11T22:37:04.976Z,13.98
2022-10-11T22:39:31.508Z,11.95
2022-10-11T22:41:58.018Z,15.43
2022-10-11T22:44:24.708Z,10.48
2022-10-11T22:46:51.203Z,12.35
2022-10-11T22:49:17.728Z,16.17
2022-10-11T22:51:44.570Z,20.85
2022-10-11T22:54:11.510Z,13.50
2022-10-11T22:56:38.039Z,10.40
2022-10-11T22:59:04.626Z,11.77
2022-10-11T23:01:31.186Z,17.52
2022-10-11T23:03:57.845Z,14.57
2022-10-11T23:06:24.431Z,11.18
2022-10-11T23:08:51.006Z,9.48
2022-10-11T23:11:18.112Z,12.63
2022-10-11T23:13:44.707Z,11.70
2022-10-11T23:16:12.789Z,12.30
2022-10-11T23:18:39.836Z,11.85
2022-10-11T23:21:07.398Z,16.92
2022-10-11T23:23:34.095Z,16.17
2022-10-11T23:26:09.367Z,11.05
2022-10-11T23:28:36.460Z,15.73
2022-10-11T23:31:18.001Z,16.23
2022-10-11T23:33:46.258Z,11.55
2022-10-11T23:36:15.112Z,15.90
2022-10-11T23:38:41.799Z,13.23
2022-10-11T23:41:08.327Z,11.48
2022-10-11T23:43:34.874Z,12.32
2022-10-11T23:46:01.527Z,16.20
2022-10-11T23:48:28.031Z,15.45
2022-10-11T23:50:54.558Z,17.52
2022-10-11T23:53:21.122Z,11.35
2022-10-11T23:55:47.697Z,15.95
2022-10-11T23:58:14.275Z,10.43
